Reliance, Texas
Current Conditions -  °F | °C
As of 8:53 AM on Thursday 30 Oct 2014 (Local Time) from KCLL Reporting Station
Scattered Clouds Scattered Clouds  
Wind Chill: 60°   Ceiling: Unl
Heat Index: 60°   Visibility: 10mi
Dew Point: 50°   Wind: 7mph
Humidity: 69%   Direction: 80°E
Pressure: 30.15"   Gusts: NA
Location:  30.6361°N, 96.3666°W
Report Text: KCLL 301353Z 08006KT 10SM SCT070 16/10 A3015 RMK AO2 SLP207 T01560100
Loading
Personal Weather Stations






























Interactive Weather Map
Tropical Storm Tracking
New forecast layout! Learn more

10-Day Weather Forecast

Advertisements
Track Severe Weather on mobile